Time;durP1;ratioP1;P1;durP2;ratioP2;P2;SDS_P1;SDS_P2;PMS_P1;PMS_P2;Temp;Humidity;BMP_temperature;BMP_pressure;BME280_temperature;BME280_humidity;BME280_pressure;Samples;Min_cycle;Max_cycle;Signal;HPM_P1;HPM_P2
2023/10/17 00:01:46;;;;;;;7.57;3.17;;;;;;;;;;5060688;28;20052;-70
2023/10/17 00:04:25;;;;;;;6.35;2.90;;;;;;;;;;5070966;28;20052;-67
2023/10/17 00:06:54;;;;;;;6.40;3.10;;;;;;;;;;5065285;28;20048;-68
2023/10/17 00:09:24;;;;;;;5.95;2.67;;;;;;;;;;5066557;28;20059;-69
2023/10/17 00:11:59;;;;;;;7.05;3.30;;;;;;;;;;5057388;28;20068;-70
2023/10/17 00:14:27;;;;;;;6.15;2.83;;;;;;;;;;5066126;28;20396;-70
2023/10/17 00:16:56;;;;;;;8.23;3.10;;;;;;;;;;5069772;28;20059;-71
2023/10/17 00:19:26;;;;;;;7.05;3.10;;;;;;;;;;5069581;28;20496;-70
2023/10/17 00:21:53;;;;;;;7.57;3.10;;;;;;;;;;5068830;28;20056;-69
2023/10/17 00:24:23;;;;;;;7.03;2.90;;;;;;;;;;5070951;28;20056;-71
2023/10/17 00:26:50;;;;;;;6.05;2.78;;;;;;;;;;5065566;28;20072;-70
2023/10/17 00:29:17;;;;;;;8.95;3.25;;;;;;;;;;5068398;28;20074;-70
2023/10/17 00:31:46;;;;;;;8.57;3.10;;;;;;;;;;5069151;28;20059;-70
2023/10/17 00:34:15;;;;;;;9.93;3.45;;;;;;;;;;5060437;28;20052;-67
2023/10/17 00:36:49;;;;;;;5.15;3.25;;;;;;;;;;5065781;28;20123;-70
2023/10/17 00:39:28;;;;;;;5.93;2.92;;;;;;;;;;5066983;28;20040;-70
2023/10/17 00:44:37;;;;;;;9.93;3.40;;;;;;;;;;5067548;28;20041;-71
2023/10/17 00:47:06;;;;;;;7.22;3.40;;;;;;;;;;5069772;28;20052;-70
2023/10/17 00:49:40;;;;;;;9.45;3.63;;;;;;;;;;5065642;28;20045;-70
2023/10/17 00:52:15;;;;;;;8.60;3.67;;;;;;;;;;5068337;28;20052;-70
2023/10/17 00:54:43;;;;;;;9.75;3.90;;;;;;;;;;5065361;28;20040;-71
2023/10/17 00:57:13;;;;;;;8.68;3.60;;;;;;;;;;5067356;28;20045;-70
2023/10/17 00:59:44;;;;;;;10.45;4.00;;;;;;;;;;5072937;28;20045;-70
2023/10/17 01:02:15;;;;;;;13.77;3.90;;;;;;;;;;5068641;28;20055;-70
2023/10/17 01:04:45;;;;;;;9.52;4.63;;;;;;;;;;5075173;28;20044;-70
2023/10/17 01:07:23;;;;;;;7.28;3.65;;;;;;;;;;5062720;28;20053;-71
2023/10/17 01:09:55;;;;;;;7.32;3.00;;;;;;;;;;5065359;28;20084;-71
2023/10/17 01:12:26;;;;;;;7.60;4.25;;;;;;;;;;5061782;28;20049;-70
2023/10/17 01:14:54;;;;;;;13.60;3.90;;;;;;;;;;5066438;28;20045;-71
2023/10/17 01:17:23;;;;;;;7.80;3.90;;;;;;;;;;5067585;28;20049;-71
2023/10/17 01:19:56;;;;;;;8.13;3.50;;;;;;;;;;5067608;28;20114;-71
2023/10/17 01:22:23;;;;;;;7.13;3.13;;;;;;;;;;5065670;28;20397;-71
2023/10/17 01:24:56;;;;;;;6.03;3.22;;;;;;;;;;5065380;28;20484;-71
2023/10/17 01:27:23;;;;;;;8.20;3.67;;;;;;;;;;5055889;28;20052;-71
2023/10/17 01:29:51;;;;;;;6.53;3.33;;;;;;;;;;5064521;28;20048;-70
2023/10/17 01:32:21;;;;;;;6.43;2.95;;;;;;;;;;5069046;28;20048;-70
2023/10/17 01:34:48;;;;;;;8.50;3.00;;;;;;;;;;5054971;28;20143;-70
2023/10/17 01:37:16;;;;;;;10.93;3.40;;;;;;;;;;5068993;28;20059;-70
2023/10/17 01:39:43;;;;;;;5.28;3.30;;;;;;;;;;5064901;28;20040;-70
2023/10/17 01:42:12;;;;;;;6.65;3.20;;;;;;;;;;5065340;28;20253;-71
2023/10/17 01:44:39;;;;;;;8.45;3.08;;;;;;;;;;5061930;28;20072;-70
2023/10/17 01:47:07;;;;;;;4.43;2.45;;;;;;;;;;5063904;28;20047;-70
2023/10/17 01:49:36;;;;;;;5.32;2.75;;;;;;;;;;5060709;28;20049;-71
2023/10/17 01:52:03;;;;;;;4.10;2.50;;;;;;;;;;5067137;28;20080;-71
2023/10/17 01:54:31;;;;;;;7.13;3.47;;;;;;;;;;5065681;28;20044;-71
2023/10/17 01:57:05;;;;;;;5.85;2.50;;;;;;;;;;5066313;28;20139;-71
2023/10/17 01:59:34;;;;;;;6.97;2.72;;;;;;;;;;5068821;28;20117;-70
2023/10/17 02:02:03;;;;;;;4.88;2.60;;;;;;;;;;5066406;28;20048;-71
2023/10/17 02:04:34;;;;;;;10.25;2.80;;;;;;;;;;5067080;28;20515;-71
2023/10/17 02:07:03;;;;;;;8.95;2.88;;;;;;;;;;5065787;28;20056;-70
2023/10/17 02:12:28;;;;;;;5.03;2.13;;;;;;;;;;5103169;27;20947;-71
2023/10/17 02:14:56;;;;;;;5.10;2.33;;;;;;;;;;5085619;28;20074;-71
2023/10/17 02:17:23;;;;;;;7.57;2.40;;;;;;;;;;5084960;28;20917;-71
2023/10/17 02:19:53;;;;;;;3.35;2.10;;;;;;;;;;5083898;28;20044;-71
2023/10/17 02:22:25;;;;;;;5.82;2.30;;;;;;;;;;5076661;28;20044;-71
2023/10/17 02:24:56;;;;;;;6.88;2.60;;;;;;;;;;5085224;28;20056;-71
2023/10/17 02:27:27;;;;;;;7.15;1.85;;;;;;;;;;5085269;28;20052;-71
2023/10/17 02:29:57;;;;;;;6.72;2.08;;;;;;;;;;5084050;28;20044;-72
2023/10/17 02:32:25;;;;;;;5.68;1.73;;;;;;;;;;5084993;28;20048;-71
2023/10/17 02:34:53;;;;;;;3.40;1.50;;;;;;;;;;5083823;28;20131;-71
2023/10/17 02:37:29;;;;;;;1.58;1.15;;;;;;;;;;5085072;28;20056;-67
2023/10/17 02:40:06;;;;;;;3.45;1.50;;;;;;;;;;5069612;28;20075;-71
2023/10/17 02:42:33;;;;;;;2.05;1.20;;;;;;;;;;5081618;28;20592;-71
2023/10/17 02:45:07;;;;;;;1.48;0.98;;;;;;;;;;5085426;28;20051;-71
2023/10/17 02:47:35;;;;;;;1.92;0.90;;;;;;;;;;5080376;28;20056;-71
2023/10/17 02:50:19;;;;;;;1.10;0.73;;;;;;;;;;5083077;28;20137;-71
2023/10/17 02:52:50;;;;;;;3.35;0.90;;;;;;;;;;5084565;28;20062;-71
2023/10/17 02:55:23;;;;;;;1.40;0.60;;;;;;;;;;5083735;28;20158;-71
2023/10/17 02:57:52;;;;;;;1.60;0.70;;;;;;;;;;5081507;28;20055;-71
2023/10/17 03:00:22;;;;;;;1.98;0.90;;;;;;;;;;5081099;28;20048;-71
2023/10/17 03:02:49;;;;;;;1.48;0.80;;;;;;;;;;5081976;28;20045;-71
2023/10/17 03:05:18;;;;;;;1.23;0.77;;;;;;;;;;5082121;28;20492;-71
2023/10/17 03:07:49;;;;;;;2.88;0.90;;;;;;;;;;5081993;28;20106;-70
2023/10/17 03:10:25;;;;;;;2.25;1.27;;;;;;;;;;5076487;28;20088;-71
2023/10/17 03:12:55;;;;;;;3.35;1.10;;;;;;;;;;5081676;28;20037;-71
2023/10/17 03:15:23;;;;;;;2.80;1.27;;;;;;;;;;5083839;28;20050;-71
2023/10/17 03:17:54;;;;;;;1.88;1.10;;;;;;;;;;5083128;28;20044;-70
2023/10/17 03:20:22;;;;;;;7.47;1.25;;;;;;;;;;5076594;28;20119;-71
2023/10/17 03:22:51;;;;;;;2.83;1.25;;;;;;;;;;5075452;28;20050;-71
2023/10/17 03:25:20;;;;;;;3.70;1.27;;;;;;;;;;5061443;28;20102;-71
2023/10/17 03:27:55;;;;;;;2.95;1.77;;;;;;;;;;5059004;28;20102;-68
2023/10/17 03:30:24;;;;;;;2.30;1.30;;;;;;;;;;5062668;28;20048;-72
2023/10/17 03:33:05;;;;;;;5.25;1.30;;;;;;;;;;5061320;28;20041;-71
2023/10/17 03:35:36;;;;;;;1.77;1.30;;;;;;;;;;5058787;28;20319;-71
2023/10/17 03:38:04;;;;;;;2.40;1.48;;;;;;;;;;5069166;28;20045;-72
2023/10/17 03:40:40;;;;;;;4.13;2.00;;;;;;;;;;5069243;28;20061;-71
2023/10/17 03:43:12;;;;;;;6.40;1.60;;;;;;;;;;5068526;28;20044;-71
2023/10/17 03:45:51;;;;;;;3.45;1.90;;;;;;;;;;5067824;28;20106;-70
2023/10/17 03:48:20;;;;;;;2.47;1.70;;;;;;;;;;5066203;28;20051;-71
2023/10/17 03:50:58;;;;;;;3.70;1.80;;;;;;;;;;5068812;28;20506;-71
2023/10/17 03:53:28;;;;;;;3.53;1.83;;;;;;;;;;5062288;28;20060;-71
2023/10/17 03:55:55;;;;;;;4.13;2.10;;;;;;;;;;5068364;28;20067;-71
2023/10/17 03:58:43;;;;;;;3.00;1.90;;;;;;;;;;5069014;28;20067;-71
2023/10/17 04:01:14;;;;;;;5.60;2.22;;;;;;;;;;5065440;28;20508;-71
2023/10/17 04:03:42;;;;;;;4.18;2.42;;;;;;;;;;5067880;28;20055;-71
2023/10/17 04:06:18;;;;;;;3.70;2.28;;;;;;;;;;5070193;28;20041;-71
2023/10/17 04:08:49;;;;;;;8.38;2.50;;;;;;;;;;5068010;28;20053;-71
2023/10/17 04:11:25;;;;;;;4.88;2.72;;;;;;;;;;5061139;28;20127;-70
2023/10/17 04:13:53;;;;;;;8.63;2.75;;;;;;;;;;5063283;28;20102;-71
2023/10/17 04:16:26;;;;;;;5.20;3.03;;;;;;;;;;5062842;28;20060;-71
2023/10/17 04:18:57;;;;;;;7.95;3.00;;;;;;;;;;5062486;28;20064;-71
2023/10/17 04:21:30;;;;;;;5.93;2.65;;;;;;;;;;5069129;28;20080;-68
2023/10/17 04:23:59;;;;;;;8.23;3.28;;;;;;;;;;5061899;28;20102;-71
2023/10/17 04:26:28;;;;;;;5.28;3.05;;;;;;;;;;5063244;28;20044;-70
2023/10/17 04:28:56;;;;;;;7.38;2.53;;;;;;;;;;5070383;28;20084;-70
2023/10/17 04:31:28;;;;;;;4.78;2.63;;;;;;;;;;5067532;28;20056;-71
2023/10/17 04:34:05;;;;;;;4.37;2.83;;;;;;;;;;5065534;28;20106;-71
2023/10/17 04:36:36;;;;;;;5.13;2.50;;;;;;;;;;5068671;28;20279;-70
2023/10/17 04:39:18;;;;;;;5.53;2.75;;;;;;;;;;5065432;28;20048;-71
2023/10/17 04:44:34;;;;;;;8.20;2.75;;;;;;;;;;5064130;28;20041;-71
2023/10/17 04:49:54;;;;;;;9.85;2.53;;;;;;;;;;5043667;28;20526;-71
2023/10/17 04:52:23;;;;;;;4.25;2.30;;;;;;;;;;5069578;28;20082;-71
2023/10/17 04:54:52;;;;;;;10.98;2.75;;;;;;;;;;5066173;28;20055;-71
2023/10/17 04:57:19;;;;;;;4.88;2.50;;;;;;;;;;5063607;28;20107;-70
2023/10/17 04:59:59;;;;;;;6.60;2.75;;;;;;;;;;5068320;28;20130;-71
2023/10/17 05:05:39;;;;;;;11.13;6.03;;;;;;;;;;5064285;28;20488;-71
2023/10/17 05:08:17;;;;;;;11.73;7.10;;;;;;;;;;5065465;28;20515;-71
2023/10/17 06:17:07;;;;;;;5.65;3.20;;;;;;;;;;4996423;28;20085;-69
2023/10/17 06:19:35;;;;;;;7.35;2.90;;;;;;;;;;4995029;28;20054;-68
2023/10/17 06:30:33;;;;;;;15.10;5.43;;;;;;;;;;5036651;28;20103;-69
2023/10/17 06:33:19;;;;;;;7.00;3.47;;;;;;;;;;5062924;28;20087;-69
2023/10/17 06:35:46;;;;;;;10.13;3.53;;;;;;;;;;5063016;28;20484;-69
2023/10/17 06:38:16;;;;;;;9.15;2.88;;;;;;;;;;5066472;28;20049;-69
2023/10/17 06:40:46;;;;;;;6.07;2.70;;;;;;;;;;5064226;28;20037;-69
2023/10/17 06:43:27;;;;;;;4.80;2.28;;;;;;;;;;5065338;28;20053;-68
2023/10/17 06:46:11;;;;;;;5.85;3.22;;;;;;;;;;5059890;28;20040;-69
2023/10/17 06:48:48;;;;;;;7.95;2.88;;;;;;;;;;5063447;28;20353;-69
2023/10/17 06:51:30;;;;;;;4.85;2.40;;;;;;;;;;5064332;28;20182;-68
2023/10/17 06:54:05;;;;;;;8.70;2.50;;;;;;;;;;5065549;28;20055;-70
2023/10/17 06:56:38;;;;;;;7.03;3.00;;;;;;;;;;5061510;28;20059;-70
2023/10/17 06:59:21;;;;;;;4.43;2.70;;;;;;;;;;5061479;28;20514;-70
2023/10/17 07:02:03;;;;;;;5.80;3.67;;;;;;;;;;5066612;28;20044;-69
2023/10/17 07:04:32;;;;;;;6.82;2.90;;;;;;;;;;5070166;28;20053;-69
2023/10/17 07:07:03;;;;;;;7.18;3.05;;;;;;;;;;5069355;28;20468;-69
2023/10/17 07:09:37;;;;;;;8.77;3.38;;;;;;;;;;5070365;28;20040;-69
2023/10/17 07:12:13;;;;;;;6.15;3.75;;;;;;;;;;5067612;28;20496;-68
2023/10/17 07:14:42;;;;;;;8.60;3.88;;;;;;;;;;5068710;28;20101;-69
2023/10/17 07:17:25;;;;;;;9.73;4.15;;;;;;;;;;5069903;28;20052;-69
2023/10/17 07:19:59;;;;;;;14.27;4.13;;;;;;;;;;5069719;28;20578;-69
2023/10/17 07:22:26;;;;;;;8.82;3.97;;;;;;;;;;5069127;28;20548;-69
2023/10/17 07:24:53;;;;;;;10.25;4.25;;;;;;;;;;5069544;28;20053;-69
2023/10/17 07:27:33;;;;;;;8.52;4.28;;;;;;;;;;5069247;28;20506;-69
2023/10/17 07:30:10;;;;;;;11.48;4.45;;;;;;;;;;5070094;28;20060;-70
2023/10/17 07:32:45;;;;;;;14.52;5.38;;;;;;;;;;5062764;28;20106;-69
2023/10/17 07:35:15;;;;;;;9.85;4.53;;;;;;;;;;5069561;28;20110;-68
2023/10/17 07:37:53;;;;;;;7.95;4.60;;;;;;;;;;5069621;28;20119;-69
2023/10/17 07:40:31;;;;;;;12.60;4.95;;;;;;;;;;5071137;28;20048;-69
2023/10/17 07:43:05;;;;;;;10.77;6.00;;;;;;;;;;5070191;28;20222;-69
2023/10/17 07:45:38;;;;;;;;;;;;;;;;;;5065702;28;20055;-69
2023/10/17 07:48:19;;;;;;;7.63;4.63;;;;;;;;;;5069419;28;20011;-69
2023/10/17 07:50:47;;;;;;;8.10;4.30;;;;;;;;;;5064700;28;20052;-69
2023/10/17 07:53:19;;;;;;;8.70;4.80;;;;;;;;;;5063668;28;20480;-68
2023/10/17 07:55:48;;;;;;;10.23;4.25;;;;;;;;;;5069652;28;20048;-69
2023/10/17 08:01:16;;;;;;;9.18;4.07;;;;;;;;;;5097464;27;20526;-69
2023/10/17 08:03:51;;;;;;;10.20;4.00;;;;;;;;;;5080744;28;20055;-69
2023/10/17 08:06:22;;;;;;;7.22;3.53;;;;;;;;;;5085113;28;20056;-69
2023/10/17 08:08:50;;;;;;;8.07;3.25;;;;;;;;;;5090738;28;20051;-69
2023/10/17 08:11:27;;;;;;;10.77;3.85;;;;;;;;;;5081219;28;20076;-68
2023/10/17 08:13:55;;;;;;;5.90;2.95;;;;;;;;;;5077375;28;20611;-69
2023/10/17 08:16:29;;;;;;;4.90;2.75;;;;;;;;;;5081721;28;20070;-69
2023/10/17 08:18:58;;;;;;;8.00;3.15;;;;;;;;;;5079052;28;20450;-69
2023/10/17 08:21:35;;;;;;;6.13;2.35;;;;;;;;;;5077888;28;20048;-69
2023/10/17 08:24:05;;;;;;;5.43;2.53;;;;;;;;;;5072718;28;20496;-70
2023/10/17 08:26:39;;;;;;;7.85;2.22;;;;;;;;;;5071457;28;20060;-69
2023/10/17 08:29:10;;;;;;;4.10;1.80;;;;;;;;;;5075071;28;20068;-69
2023/10/17 08:31:44;;;;;;;4.55;1.40;;;;;;;;;;5079120;28;20050;-69
2023/10/17 08:34:12;;;;;;;2.22;1.20;;;;;;;;;;5077433;28;20048;-69
2023/10/17 08:36:42;;;;;;;5.78;1.13;;;;;;;;;;5081643;28;20048;-69
2023/10/17 08:41:53;;;;;;;9.07;1.30;;;;;;;;;;5071642;28;20131;-69
2023/10/17 08:44:21;;;;;;;4.53;0.90;;;;;;;;;;5075211;28;20166;-68
2023/10/17 08:46:54;;;;;;;2.58;0.88;;;;;;;;;;5075807;28;20407;-69
2023/10/17 08:49:21;;;;;;;5.70;0.90;;;;;;;;;;5084150;28;20049;-69
2023/10/17 08:51:49;;;;;;;7.55;1.00;;;;;;;;;;5082521;28;20450;-69
2023/10/17 08:54:18;;;;;;;5.07;0.98;;;;;;;;;;5075783;28;20045;-69
2023/10/17 08:56:46;;;;;;;3.95;1.00;;;;;;;;;;5069131;28;20049;-69
2023/10/17 08:59:15;;;;;;;3.28;1.10;;;;;;;;;;5079804;28;20060;-68
2023/10/17 09:01:58;;;;;;;7.40;1.30;;;;;;;;;;5084455;28;20138;-69
2023/10/17 09:04:32;;;;;;;7.03;1.40;;;;;;;;;;5080611;28;20416;-69
2023/10/17 09:07:04;;;;;;;4.22;1.30;;;;;;;;;;5081929;28;20295;-69
2023/10/17 09:09:34;;;;;;;4.95;1.60;;;;;;;;;;5080300;28;20084;-70
2023/10/17 09:12:03;;;;;;;6.13;1.60;;;;;;;;;;5070565;28;20056;-69
2023/10/17 09:14:35;;;;;;;7.50;1.80;;;;;;;;;;5071507;28;20164;-69
2023/10/17 09:17:10;;;;;;;3.42;1.00;;;;;;;;;;5062994;28;20056;-69
2023/10/17 09:19:46;;;;;;;1.75;0.73;;;;;;;;;;5066349;28;20048;-69
2023/10/17 09:22:14;;;;;;;2.33;0.77;;;;;;;;;;5054652;28;20137;-68
2023/10/17 09:24:45;;;;;;;1.60;0.60;;;;;;;;;;5055896;28;20059;-69
2023/10/17 09:27:14;;;;;;;0.95;0.50;;;;;;;;;;5066750;28;20091;-69
2023/10/17 09:29:49;;;;;;;1.35;0.35;;;;;;;;;;5066444;28;20094;-70
2023/10/17 09:32:35;;;;;;;4.22;0.70;;;;;;;;;;5069301;28;20144;-70
2023/10/17 09:35:10;;;;;;;1.60;0.40;;;;;;;;;;5065978;28;20127;-69
2023/10/17 09:37:38;;;;;;;1.88;0.50;;;;;;;;;;5057744;28;20132;-69
2023/10/17 09:40:11;;;;;;;2.72;0.40;;;;;;;;;;5060657;28;20412;-69
2023/10/17 09:42:40;;;;;;;3.40;0.40;;;;;;;;;;5067170;28;20056;-69
2023/10/17 09:45:09;;;;;;;1.90;0.45;;;;;;;;;;5063688;28;20079;-69
2023/10/17 09:47:39;;;;;;;6.15;0.35;;;;;;;;;;5060242;28;20087;-69
2023/10/17 09:50:12;;;;;;;1.58;0.30;;;;;;;;;;5067069;28;20131;-69
2023/10/17 09:52:40;;;;;;;0.82;0.30;;;;;;;;;;5069240;28;20064;-69
2023/10/17 09:55:09;;;;;;;4.03;0.70;;;;;;;;;;5054898;28;20045;-69
2023/10/17 09:57:38;;;;;;;0.75;0.38;;;;;;;;;;5062348;28;20053;-69
2023/10/17 10:00:09;;;;;;;1.88;0.40;;;;;;;;;;5057349;28;20057;-69
2023/10/17 10:02:38;;;;;;;1.80;0.30;;;;;;;;;;5067637;28;20072;-69
2023/10/17 10:05:24;;;;;;;2.88;0.32;;;;;;;;;;5061353;28;20076;-70
2023/10/17 10:07:52;;;;;;;2.35;0.70;;;;;;;;;;5059784;28;20059;-70
2023/10/17 10:10:38;;;;;;;0.75;0.30;;;;;;;;;;5066403;28;20503;-69
2023/10/17 10:13:08;;;;;;;1.00;0.40;;;;;;;;;;5066229;28;20053;-69
2023/10/17 10:15:51;;;;;;;7.57;0.88;;;;;;;;;;5059725;28;20099;-69
2023/10/17 10:18:19;;;;;;;5.45;1.02;;;;;;;;;;5066638;28;20052;-70
2023/10/17 10:20:57;;;;;;;7.30;1.10;;;;;;;;;;5061414;28;20043;-69
2023/10/17 10:23:34;;;;;;;5.78;1.23;;;;;;;;;;5066318;28;20503;-69
2023/10/17 10:26:19;;;;;;;3.25;0.85;;;;;;;;;;5070520;28;20052;-70
2023/10/17 10:28:46;;;;;;;6.28;1.40;;;;;;;;;;5067781;28;20053;-69
2023/10/17 10:31:32;;;;;;;2.88;0.98;;;;;;;;;;5068966;28;20306;-69
2023/10/17 10:33:59;;;;;;;7.90;1.77;;;;;;;;;;5056099;28;20060;-70
2023/10/17 10:36:28;;;;;;;7.47;2.80;;;;;;;;;;5068752;28;20070;-69
2023/10/17 10:38:57;;;;;;;5.65;2.13;;;;;;;;;;5067113;28;20048;-69
2023/10/17 10:41:25;;;;;;;7.57;1.98;;;;;;;;;;5065657;28;20123;-70
2023/10/17 10:43:59;;;;;;;4.85;1.20;;;;;;;;;;5066407;28;20155;-70
2023/10/17 10:46:28;;;;;;;3.28;0.98;;;;;;;;;;5059461;28;20051;-69
2023/10/17 10:48:56;;;;;;;3.85;1.02;;;;;;;;;;5062681;28;20120;-70
2023/10/17 10:51:25;;;;;;;4.43;1.42;;;;;;;;;;5062105;28;20068;-69
2023/10/17 10:53:56;;;;;;;4.53;1.15;;;;;;;;;;5058729;28;20139;-69
2023/10/17 10:56:24;;;;;;;2.65;0.95;;;;;;;;;;5051528;28;20500;-69
2023/10/17 10:58:55;;;;;;;2.95;0.90;;;;;;;;;;5055411;28;20047;-69
2023/10/17 11:01:22;;;;;;;3.42;0.88;;;;;;;;;;5055545;28;20120;-69
2023/10/17 11:03:50;;;;;;;7.75;1.75;;;;;;;;;;5058842;28;20051;-69
2023/10/17 11:06:23;;;;;;;5.72;1.65;;;;;;;;;;5058101;28;20041;-69
2023/10/17 11:08:51;;;;;;;4.70;1.50;;;;;;;;;;5063508;28;20048;-69
2023/10/17 11:11:20;;;;;;;2.80;0.90;;;;;;;;;;5055374;28;20127;-69
2023/10/17 11:13:48;;;;;;;4.50;1.42;;;;;;;;;;5062300;28;20048;-69
2023/10/17 11:16:17;;;;;;;7.10;1.70;;;;;;;;;;5055230;28;20055;-69
2023/10/17 11:18:45;;;;;;;10.10;3.25;;;;;;;;;;5060007;28;20053;-69
2023/10/17 11:21:13;;;;;;;7.50;2.42;;;;;;;;;;5059420;28;20504;-69
2023/10/17 11:23:41;;;;;;;3.47;1.25;;;;;;;;;;5058151;28;20044;-70
2023/10/17 11:26:11;;;;;;;2.85;1.20;;;;;;;;;;5063943;28;20463;-69
2023/10/17 11:28:42;;;;;;;2.45;1.05;;;;;;;;;;5057431;28;20049;-69
2023/10/17 11:31:13;;;;;;;5.05;1.60;;;;;;;;;;5059022;28;20057;-69
2023/10/17 11:33:47;;;;;;;2.50;0.90;;;;;;;;;;5050570;28;20041;-70
2023/10/17 11:36:19;;;;;;;1.40;0.60;;;;;;;;;;5064074;28;20060;-69
2023/10/17 11:38:54;;;;;;;4.15;0.57;;;;;;;;;;5063491;28;20044;-69
2023/10/17 11:41:28;;;;;;;1.90;0.70;;;;;;;;;;5054069;28;20051;-69
2023/10/17 11:43:57;;;;;;;2.38;0.68;;;;;;;;;;5061366;28;20052;-69
2023/10/17 11:46:30;;;;;;;5.35;0.73;;;;;;;;;;5060925;28;20045;-70
2023/10/17 11:49:20;;;;;;;4.57;0.80;;;;;;;;;;5066014;28;20045;-69
2023/10/17 11:51:51;;;;;;;2.40;0.70;;;;;;;;;;5059914;28;20528;-69
2023/10/17 11:54:22;;;;;;;1.45;0.60;;;;;;;;;;5058116;28;20099;-69
2023/10/17 11:56:50;;;;;;;3.15;0.60;;;;;;;;;;5057123;28;20048;-69
2023/10/17 11:59:19;;;;;;;2.47;0.95;;;;;;;;;;5061684;28;20064;-69
2023/10/17 12:01:46;;;;;;;2.65;0.50;;;;;;;;;;5057373;28;20098;-69
2023/10/17 12:04:16;;;;;;;4.72;0.93;;;;;;;;;;5061214;28;20052;-69
2023/10/17 12:06:44;;;;;;;2.45;0.57;;;;;;;;;;5060578;28;20052;-69
2023/10/17 12:09:18;;;;;;;2.85;0.63;;;;;;;;;;5061960;28;20057;-70
2023/10/17 12:11:50;;;;;;;5.20;0.52;;;;;;;;;;5053745;28;20072;-69
2023/10/17 12:14:20;;;;;;;3.45;0.95;;;;;;;;;;5056962;28;20080;-69
2023/10/17 12:16:53;;;;;;;3.88;0.73;;;;;;;;;;5060222;28;20524;-70
2023/10/17 12:19:21;;;;;;;2.33;0.57;;;;;;;;;;5064713;28;20040;-69
2023/10/17 12:21:48;;;;;;;1.42;0.75;;;;;;;;;;5059101;28;20068;-69
2023/10/17 12:24:24;;;;;;;2.97;0.60;;;;;;;;;;5059365;28;20050;-70
2023/10/17 12:26:51;;;;;;;3.63;0.60;;;;;;;;;;5067785;28;20110;-69
2023/10/17 12:29:20;;;;;;;1.85;0.70;;;;;;;;;;5062313;28;20041;-70
2023/10/17 12:31:48;;;;;;;2.80;0.70;;;;;;;;;;5054780;28;20155;-69
2023/10/17 12:34:16;;;;;;;0.70;0.40;;;;;;;;;;5063413;28;20056;-69
2023/10/17 12:36:46;;;;;;;2.50;0.63;;;;;;;;;;5053806;28;20098;-69
2023/10/17 12:39:14;;;;;;;1.98;0.70;;;;;;;;;;5056443;28;20052;-69
2023/10/17 12:41:41;;;;;;;1.65;0.50;;;;;;;;;;5050227;28;20119;-69
2023/10/17 12:44:09;;;;;;;1.67;0.60;;;;;;;;;;5063215;28;20049;-70
2023/10/17 12:46:38;;;;;;;3.55;0.63;;;;;;;;;;5065421;28;20051;-70
2023/10/17 12:49:06;;;;;;;1.52;0.52;;;;;;;;;;5068817;28;20131;-70
2023/10/17 12:51:33;;;;;;;3.35;0.70;;;;;;;;;;5063393;28;20053;-69
2023/10/17 12:54:00;;;;;;;1.67;0.40;;;;;;;;;;5064587;28;20053;-69
2023/10/17 12:56:31;;;;;;;5.78;0.77;;;;;;;;;;5061076;28;20056;-69
2023/10/17 12:58:59;;;;;;;2.75;0.43;;;;;;;;;;5067810;28;20055;-69
2023/10/17 13:01:26;;;;;;;4.90;0.57;;;;;;;;;;5065679;28;20047;-69
2023/10/17 13:03:57;;;;;;;2.47;0.60;;;;;;;;;;5070628;28;20057;-70
2023/10/17 13:06:25;;;;;;;4.00;0.40;;;;;;;;;;5069683;28;20044;-69
2023/10/17 13:08:56;;;;;;;2.53;0.40;;;;;;;;;;5063006;28;20048;-69
2023/10/17 13:11:23;;;;;;;1.95;0.50;;;;;;;;;;5065418;28;20064;-69
2023/10/17 13:13:51;;;;;;;2.30;0.50;;;;;;;;;;5064548;28;20045;-69
2023/10/17 13:16:18;;;;;;;6.60;0.60;;;;;;;;;;5056482;28;20064;-69
2023/10/17 13:18:47;;;;;;;2.50;0.47;;;;;;;;;;5059418;28;20049;-69
2023/10/17 13:21:16;;;;;;;3.20;0.65;;;;;;;;;;5056551;28;20075;-69
2023/10/17 13:23:44;;;;;;;1.52;0.50;;;;;;;;;;5053038;28;20041;-69
2023/10/17 13:26:12;;;;;;;2.75;0.52;;;;;;;;;;5059571;28;20139;-69
2023/10/17 13:28:39;;;;;;;3.60;0.50;;;;;;;;;;5054908;28;20441;-69
2023/10/17 13:31:10;;;;;;;2.05;0.47;;;;;;;;;;5055423;28;20123;-69
2023/10/17 13:33:38;;;;;;;3.25;0.47;;;;;;;;;;5054517;28;20056;-69
2023/10/17 13:36:06;;;;;;;7.80;0.65;;;;;;;;;;5057747;28;20492;-69
2023/10/17 13:38:37;;;;;;;3.47;0.60;;;;;;;;;;5060818;28;20076;-69
2023/10/17 13:41:05;;;;;;;4.38;0.55;;;;;;;;;;5067656;28;20103;-69
2023/10/17 13:43:32;;;;;;;3.60;0.60;;;;;;;;;;5060159;28;20511;-69
2023/10/17 13:46:00;;;;;;;2.17;0.50;;;;;;;;;;5063587;28;20487;-69
2023/10/17 13:48:27;;;;;;;1.88;0.50;;;;;;;;;;5065545;28;20049;-69
2023/10/17 13:51:02;;;;;;;2.10;0.50;;;;;;;;;;5063685;28;20052;-69
2023/10/17 13:53:29;;;;;;;3.80;1.10;;;;;;;;;;5062150;28;20041;-69
2023/10/17 13:55:58;;;;;;;1.40;0.68;;;;;;;;;;5057509;28;20044;-69
2023/10/17 13:58:25;;;;;;;4.20;0.70;;;;;;;;;;5067905;28;20047;-69
2023/10/17 14:00:54;;;;;;;3.25;0.68;;;;;;;;;;5065632;28;20666;-69
2023/10/17 14:03:23;;;;;;;3.30;0.68;;;;;;;;;;5066669;28;20484;-70
2023/10/17 14:05:51;;;;;;;4.22;0.70;;;;;;;;;;5066212;28;20468;-70
2023/10/17 14:08:21;;;;;;;1.85;0.65;;;;;;;;;;5066973;28;20159;-69
2023/10/17 14:10:49;;;;;;;2.55;0.77;;;;;;;;;;5068762;28;20500;-69
2023/10/17 14:13:18;;;;;;;1.15;0.60;;;;;;;;;;5065849;28;20060;-69
2023/10/17 14:15:45;;;;;;;2.35;1.10;;;;;;;;;;5066033;28;20055;-69
2023/10/17 14:18:14;;;;;;;4.00;0.70;;;;;;;;;;5060067;28;20523;-69
2023/10/17 14:21:04;;;;;;;1.33;0.80;;;;;;;;;;5070853;28;20127;-69
2023/10/17 14:23:32;;;;;;;2.05;0.60;;;;;;;;;;5068624;28;20048;-69
2023/10/17 14:26:09;;;;;;;1.60;0.63;;;;;;;;;;5069718;28;20080;-68
2023/10/17 14:28:37;;;;;;;1.90;0.70;;;;;;;;;;5063963;28;20085;-69
2023/10/17 14:31:05;;;;;;;1.83;0.88;;;;;;;;;;5067802;28;20044;-69
2023/10/17 14:33:33;;;;;;;4.53;0.77;;;;;;;;;;5064015;28;20127;-69
2023/10/17 14:36:03;;;;;;;1.40;0.73;;;;;;;;;;5067991;28;20053;-70
2023/10/17 14:38:31;;;;;;;3.92;0.70;;;;;;;;;;5055461;28;20041;-68
2023/10/17 14:41:00;;;;;;;2.75;0.75;;;;;;;;;;5065204;28;20551;-69
2023/10/17 14:43:27;;;;;;;2.00;0.60;;;;;;;;;;5064074;28;20081;-69
2023/10/17 14:45:56;;;;;;;2.97;0.68;;;;;;;;;;5059850;28;20060;-69
2023/10/17 14:48:24;;;;;;;5.60;0.75;;;;;;;;;;5064782;28;20044;-69
2023/10/17 14:50:51;;;;;;;2.72;0.80;;;;;;;;;;5063351;28;20080;-69
2023/10/17 14:53:19;;;;;;;2.83;0.60;;;;;;;;;;5061183;28;20044;-69
2023/10/17 14:55:47;;;;;;;1.98;0.60;;;;;;;;;;5065233;28;20052;-69
2023/10/17 14:58:14;;;;;;;3.00;1.00;;;;;;;;;;5064174;28;20476;-69
2023/10/17 15:00:41;;;;;;;2.17;0.73;;;;;;;;;;5061331;28;20772;-69
2023/10/17 15:03:11;;;;;;;1.85;0.80;;;;;;;;;;5067439;28;20080;-69
2023/10/17 15:05:41;;;;;;;1.77;0.80;;;;;;;;;;5067849;28;20082;-69
2023/10/17 15:08:11;;;;;;;1.80;0.70;;;;;;;;;;5062119;28;20053;-69
2023/10/17 15:10:39;;;;;;;2.35;0.82;;;;;;;;;;5058895;28;20040;-69
2023/10/17 15:13:08;;;;;;;3.35;0.70;;;;;;;;;;5064583;28;20045;-69
2023/10/17 15:15:36;;;;;;;4.65;0.98;;;;;;;;;;5057729;28;20052;-68
2023/10/17 15:18:04;;;;;;;3.40;0.85;;;;;;;;;;5059318;28;20056;-69
2023/10/17 15:20:33;;;;;;;3.22;0.88;;;;;;;;;;5060446;28;20052;-69
2023/10/17 15:23:00;;;;;;;3.63;0.88;;;;;;;;;;5061120;28;20056;-68
2023/10/17 15:25:29;;;;;;;1.60;0.93;;;;;;;;;;5065113;28;20045;-69
2023/10/17 15:27:56;;;;;;;2.53;1.00;;;;;;;;;;5060501;28;20130;-69
2023/10/17 15:30:24;;;;;;;2.83;0.90;;;;;;;;;;5057002;28;20053;-69
2023/10/17 15:32:51;;;;;;;1.80;0.88;;;;;;;;;;5064632;28;20044;-69
2023/10/17 15:35:18;;;;;;;2.65;1.02;;;;;;;;;;5062393;28;20068;-69
2023/10/17 15:37:48;;;;;;;2.33;0.90;;;;;;;;;;5061076;28;20416;-69
2023/10/17 15:40:19;;;;;;;1.70;1.05;;;;;;;;;;5059254;28;20049;-69
2023/10/17 15:42:47;;;;;;;2.17;1.20;;;;;;;;;;5060816;28;20052;-69
2023/10/17 15:45:15;;;;;;;2.33;1.10;;;;;;;;;;5056828;28;20053;-69
2023/10/17 15:47:43;;;;;;;3.63;1.08;;;;;;;;;;5062464;28;20057;-69
2023/10/17 15:50:17;;;;;;;3.33;1.65;;;;;;;;;;5061633;28;20399;-69
2023/10/17 15:52:44;;;;;;;2.42;1.10;;;;;;;;;;5068480;28;20086;-68
2023/10/17 15:55:13;;;;;;;3.13;1.00;;;;;;;;;;5056543;28;20056;-69
2023/10/17 15:57:41;;;;;;;2.90;1.23;;;;;;;;;;5063407;28;20044;-68
2023/10/17 16:00:13;;;;;;;2.47;1.10;;;;;;;;;;5064464;28;20055;-69
2023/10/17 16:02:41;;;;;;;3.05;1.10;;;;;;;;;;5054952;28;20057;-69
2023/10/17 16:05:11;;;;;;;2.55;1.05;;;;;;;;;;5052308;28;20049;-68
2023/10/17 16:07:39;;;;;;;3.60;1.08;;;;;;;;;;5060643;28;20041;-69
2023/10/17 16:10:07;;;;;;;2.65;1.20;;;;;;;;;;5063619;28;20048;-68
2023/10/17 16:12:36;;;;;;;1.75;1.00;;;;;;;;;;5058452;28;20067;-69
2023/10/17 16:15:06;;;;;;;2.17;1.20;;;;;;;;;;5057040;28;20107;-69
2023/10/17 16:17:33;;;;;;;3.50;1.10;;;;;;;;;;5051496;28;20153;-68
2023/10/17 16:20:00;;;;;;;4.22;1.15;;;;;;;;;;5056184;28;20060;-69
2023/10/17 16:22:27;;;;;;;4.10;1.30;;;;;;;;;;5063137;28;20040;-69
2023/10/17 16:24:55;;;;;;;2.38;1.00;;;;;;;;;;5058315;28;20041;-69
2023/10/17 16:27:22;;;;;;;2.10;1.23;;;;;;;;;;5061246;28;20365;-68
2023/10/17 16:29:51;;;;;;;3.13;1.13;;;;;;;;;;5058127;28;20049;-68
2023/10/17 16:32:18;;;;;;;5.85;1.30;;;;;;;;;;5060909;28;20060;-69
2023/10/17 16:34:45;;;;;;;1.70;1.00;;;;;;;;;;5064271;28;20044;-68
2023/10/17 16:37:14;;;;;;;1.95;1.10;;;;;;;;;;5060841;28;20427;-68
2023/10/17 16:39:41;;;;;;;2.42;1.20;;;;;;;;;;5062876;28;20052;-68